createdAt,value
2022-09-12T00:01:36.732Z,101842.19
2022-09-12T00:04:05.551Z,101844.00
2022-09-12T00:06:37.727Z,101847.47
2022-09-12T00:09:09.571Z,101806.75
2022-09-12T00:11:39.096Z,101837.66
2022-09-12T00:14:09.246Z,101846.56
2022-09-12T00:16:40.410Z,101827.94
2022-09-12T00:19:09.828Z,101836.78
2022-09-12T00:21:40.293Z,101829.63
2022-09-12T00:24:09.293Z,101830.47
2022-09-12T00:26:37.999Z,101802.25
2022-09-12T00:29:06.439Z,101845.53
2022-09-12T00:31:35.417Z,101848.22
2022-09-12T00:34:05.283Z,101827.88
2022-09-12T00:36:33.698Z,101831.38
2022-09-12T00:39:02.128Z,101834.84
2022-09-12T00:41:33.997Z,101840.97
2022-09-12T00:44:05.751Z,101804.66
2022-09-12T00:46:42.324Z,101803.84
2022-09-12T00:49:19.014Z,101825.13
2022-09-12T00:51:54.478Z,101824.28
2022-09-12T00:54:29.335Z,101812.75
2022-09-12T00:57:02.077Z,101754.41
2022-09-12T00:59:36.929Z,101810.19
2022-09-12T01:02:05.916Z,101805.75
2022-09-12T01:04:41.764Z,101795.13
2022-09-12T01:07:10.861Z,101808.41
2022-09-12T01:09:41.008Z,101799.56
2022-09-12T01:12:10.634Z,101795.94
2022-09-12T01:14:40.105Z,101783.53
2022-09-12T01:17:08.502Z,101805.66
2022-09-12T01:20:10.305Z,101807.38
2022-09-12T01:23:17.225Z,101801.22
2022-09-12T01:26:04.328Z,101790.50
2022-09-12T01:29:00.121Z,101793.13
2022-09-12T01:31:38.636Z,101752.34
2022-09-12T01:34:20.027Z,101792.31
2022-09-12T01:37:01.868Z,101734.78
2022-09-12T01:39:39.956Z,101798.41
2022-09-12T01:42:19.392Z,101763.06
2022-09-12T01:44:56.306Z,101763.97
2022-09-12T01:47:35.175Z,101765.59
2022-09-12T01:50:08.052Z,101737.41
2022-09-12T01:52:46.025Z,101787.78
2022-09-12T01:55:20.091Z,101735.63
2022-09-12T01:57:55.868Z,101771.06
2022-09-12T02:00:24.393Z,101760.41
2022-09-12T02:03:03.011Z,101736.44
2022-09-12T02:05:35.676Z,101775.41
2022-09-12T02:08:09.393Z,101749.84
2022-09-12T02:10:46.714Z,101765.69
2022-09-12T02:13:19.946Z,101750.69
2022-09-12T02:15:53.869Z,101775.44
2022-09-12T02:18:27.295Z,101728.59
2022-09-12T02:20:57.192Z,101739.25
2022-09-12T02:23:30.818Z,101761.31
2022-09-12T02:26:05.613Z,101761.34
2022-09-12T02:28:39.217Z,101764.94
2022-09-12T02:31:20.388Z,101716.25
2022-09-12T02:34:00.211Z,101738.34
2022-09-12T02:36:40.078Z,101729.44
2022-09-12T02:39:08.585Z,101716.25
2022-09-12T02:41:37.572Z,101682.72
2022-09-12T02:44:06.956Z,101749.03
2022-09-12T02:46:40.578Z,101746.38
2022-09-12T02:49:11.318Z,101690.69
2022-09-12T02:51:40.113Z,101708.41
2022-09-12T02:54:09.314Z,101718.16
2022-09-12T02:56:41.993Z,101712.88
2022-09-12T02:59:13.936Z,101692.50
2022-09-12T03:02:00.461Z,101728.06
2022-09-12T03:04:48.590Z,101697.13
2022-09-12T03:07:32.231Z,101730.75
2022-09-12T03:10:10.652Z,101724.59
2022-09-12T03:12:52.462Z,101727.22
2022-09-12T03:15:34.628Z,101723.84
2022-09-12T03:18:21.013Z,101720.31
2022-09-12T03:21:00.538Z,101722.94
2022-09-12T03:23:35.831Z,101709.75
2022-09-12T03:26:10.833Z,101687.66
2022-09-12T03:28:42.038Z,101716.84
2022-09-12T03:31:15.632Z,101641.78
2022-09-12T03:33:44.263Z,101659.47
2022-09-12T03:36:20.631Z,101686.84
2022-09-12T03:38:48.911Z,101714.28
2022-09-12T03:41:17.207Z,101671.91
2022-09-12T03:43:46.201Z,101665.69
2022-09-12T03:46:15.422Z,101660.38
2022-09-12T03:48:44.009Z,101686.00
2022-09-12T03:51:12.758Z,101689.53
2022-09-12T03:53:42.377Z,101694.88
2022-09-12T03:56:14.696Z,101693.19
2022-09-12T03:58:43.325Z,101676.34
2022-09-12T04:01:13.443Z,101646.22
2022-09-12T04:03:42.357Z,101693.06
2022-09-12T04:06:13.911Z,101618.78
2022-09-12T04:08:45.396Z,101632.06
2022-09-12T04:11:15.996Z,101693.03
2022-09-12T04:13:46.503Z,101685.91
2022-09-12T04:16:17.538Z,101658.47
2022-09-12T04:18:47.436Z,101685.91
2022-09-12T04:21:18.699Z,101640.88
2022-09-12T04:23:48.739Z,101657.66
2022-09-12T04:26:18.509Z,101652.38
2022-09-12T04:28:48.273Z,101664.78
2022-09-12T04:31:20.753Z,101679.81
2022-09-12T04:33:49.292Z,101627.69
2022-09-12T04:36:19.004Z,101649.75
2022-09-12T04:38:49.254Z,101678.09
2022-09-12T04:41:20.448Z,101672.75
2022-09-12T04:43:53.790Z,101681.56
2022-09-12T04:46:22.589Z,101671.03
2022-09-12T04:48:56.472Z,101680.72
2022-09-12T04:51:28.280Z,101632.13
2022-09-12T04:54:00.421Z,101625.94
2022-09-12T04:56:30.285Z,101662.19
2022-09-12T04:59:00.781Z,101657.78
2022-09-12T05:01:30.918Z,101662.16
2022-09-12T05:04:00.887Z,101655.97
2022-09-12T05:06:31.598Z,101656.06
2022-09-12T05:09:02.938Z,101634.81
2022-09-12T05:12:00.119Z,101605.66
2022-09-12T05:14:22.357Z,101679.88
2022-09-12T05:16:50.733Z,101671.91
2022-09-12T05:19:19.225Z,101681.56
2022-09-12T05:21:47.665Z,101637.34
2022-09-12T05:24:17.729Z,101685.94
2022-09-12T05:26:46.101Z,101691.28
2022-09-12T05:29:14.382Z,101683.22
2022-09-12T05:31:43.497Z,101650.59
2022-09-12T05:34:12.846Z,101689.47
2022-09-12T05:36:41.518Z,101658.50
2022-09-12T05:39:09.805Z,101686.81
2022-09-12T05:41:39.572Z,101683.22
2022-09-12T05:44:12.169Z,101672.66
2022-09-12T05:46:42.721Z,101683.22
2022-09-12T05:49:13.065Z,101651.41
2022-09-12T05:51:44.910Z,101654.06
2022-09-12T05:54:18.183Z,101678.78
2022-09-12T05:56:49.369Z,101648.78
2022-09-12T05:59:21.026Z,101686.69
2022-09-12T06:01:49.899Z,101684.22
2022-09-12T06:04:18.974Z,101685.94
2022-09-12T06:06:48.844Z,101679.84
2022-09-12T06:09:18.644Z,101660.25
2022-09-12T06:11:48.763Z,101691.28
2022-09-12T06:14:19.557Z,101689.50
2022-09-12T06:16:48.775Z,101694.81
2022-09-12T06:19:19.487Z,101682.53
2022-09-12T06:21:48.413Z,101641.00
2022-09-12T06:24:17.634Z,101687.81
2022-09-12T06:26:48.369Z,101655.09
2022-09-12T06:29:18.948Z,101657.75
2022-09-12T06:31:47.224Z,101685.16
2022-09-12T06:34:17.405Z,101657.72
2022-09-12T06:36:47.684Z,101640.03
2022-09-12T06:39:18.965Z,101694.88
2022-09-12T06:41:50.039Z,101686.00
2022-09-12T06:44:21.127Z,101699.22
2022-09-12T06:46:49.935Z,101670.16
2022-09-12T06:49:18.607Z,101665.69
2022-09-12T06:51:46.934Z,101696.63
2022-09-12T06:54:16.878Z,101653.34
2022-09-12T06:56:48.229Z,101692.34
2022-09-12T06:59:16.670Z,101642.03
2022-09-12T07:01:45.103Z,101659.75
2022-09-12T07:04:13.541Z,101682.81
2022-09-12T07:06:44.795Z,101662.50
2022-09-12T07:09:16.413Z,101679.34
2022-09-12T07:11:45.394Z,101687.28
2022-09-12T07:14:16.854Z,101632.56
2022-09-12T07:16:45.387Z,101684.63
2022-09-12T07:19:13.815Z,101683.81
2022-09-12T07:21:42.485Z,101681.25
2022-09-12T07:24:11.867Z,101683.09
2022-09-12T07:26:42.317Z,101683.94
2022-09-12T07:29:36.924Z,101656.63
2022-09-12T07:32:06.714Z,101653.13
2022-09-12T07:34:36.882Z,101603.75
2022-09-12T07:37:05.921Z,101685.81
2022-09-12T07:39:34.517Z,101688.44
2022-09-12T07:42:02.885Z,101683.16
2022-09-12T07:44:32.656Z,101663.75
2022-09-12T07:47:01.356Z,101685.81
2022-09-12T07:49:30.531Z,101688.47
2022-09-12T07:51:58.878Z,101653.16
2022-09-12T07:54:27.283Z,101697.31
2022-09-12T07:56:55.736Z,101692.91
2022-09-12T07:59:48.329Z,101688.50
2022-09-12T08:02:17.400Z,101698.16
2022-09-12T08:04:47.612Z,101692.84
2022-09-12T08:07:16.039Z,101692.78
2022-09-12T08:09:45.542Z,101622.00
2022-09-12T08:12:13.970Z,101629.63
2022-09-12T08:14:42.400Z,101589.47
2022-09-12T08:17:10.988Z,101661.88
2022-09-12T08:19:40.790Z,101619.28
2022-09-12T08:22:09.883Z,101631.38
2022-09-12T08:24:39.188Z,101647.47
2022-09-12T08:27:07.940Z,101642.84
2022-09-12T08:29:36.281Z,101627.25
2022-09-12T08:32:05.183Z,101640.13
2022-09-12T08:34:33.681Z,101637.41
2022-09-12T08:37:04.110Z,101633.16
2022-09-12T08:39:33.261Z,101625.34
2022-09-12T08:42:04.961Z,101625.03
2022-09-12T08:45:02.731Z,101604.66
2022-09-12T08:47:35.698Z,101592.34
2022-09-12T08:50:15.402Z,101619.63
2022-09-12T08:52:58.596Z,101622.75
2022-09-12T08:55:34.519Z,101613.59
2022-09-12T08:58:13.035Z,101566.84
2022-09-12T09:00:52.135Z,101589.38
2022-09-12T09:04:20.582Z,101613.16
2022-09-12T09:07:18.754Z,101579.97
2022-09-12T09:10:07.923Z,101580.59
2022-09-12T09:12:47.674Z,101571.56
2022-09-12T09:15:35.013Z,101585.28
2022-09-12T09:18:07.484Z,101573.53
2022-09-12T09:20:44.074Z,101584.78
2022-09-12T09:23:17.962Z,101583.00
2022-09-12T09:25:59.112Z,101576.94
2022-09-12T09:28:35.201Z,101573.44
2022-09-12T09:31:03.799Z,101575.72
2022-09-12T09:33:36.114Z,101563.44
2022-09-12T09:36:19.133Z,101562.25
2022-09-12T09:38:52.004Z,101543.72
2022-09-12T09:41:46.991Z,101565.44
2022-09-12T09:44:15.436Z,101548.09
2022-09-12T09:46:43.796Z,101556.88
2022-09-12T09:49:15.583Z,101534.13
2022-09-12T09:51:44.640Z,101540.13
2022-09-12T09:54:22.293Z,101528.16
2022-09-12T09:56:52.541Z,101529.16
2022-09-12T09:59:28.334Z,101524.22
2022-09-12T10:02:02.185Z,101537.31
2022-09-12T10:04:35.970Z,101511.59
2022-09-12T10:07:07.466Z,101522.63
2022-09-12T10:09:37.643Z,101536.38
2022-09-12T10:12:28.173Z,101497.34
2022-09-12T10:15:00.672Z,101509.44
2022-09-12T10:17:34.457Z,101483.78
2022-09-12T10:22:51.906Z,101517.72
2022-09-12T10:25:21.487Z,101439.44
2022-09-12T10:27:58.317Z,101506.25
2022-09-12T10:30:28.996Z,101495.53
2022-09-12T10:33:10.017Z,101454.38
2022-09-12T10:35:50.861Z,101442.25
2022-09-12T10:38:25.689Z,101471.34
2022-09-12T10:41:01.255Z,101453.94
2022-09-12T10:43:36.136Z,101416.91
2022-09-12T10:46:30.276Z,101472.34
2022-09-12T10:49:21.151Z,101437.38
2022-09-12T10:51:50.137Z,101451.00
2022-09-12T10:54:22.209Z,101426.91
2022-09-12T10:57:34.194Z,101468.50
2022-09-12T11:00:16.694Z,101455.06
2022-09-12T11:02:54.270Z,101461.69
2022-09-12T11:05:45.610Z,101468.94
2022-09-12T11:08:34.413Z,101468.13
2022-09-12T11:11:11.868Z,101468.75
2022-09-12T11:14:03.469Z,101435.41
2022-09-12T11:16:44.206Z,101467.97
2022-09-12T11:19:40.905Z,101461.03
2022-09-12T11:22:26.775Z,101464.47
2022-09-12T11:25:15.094Z,101425.34
2022-09-12T11:28:00.610Z,101419.59
2022-09-12T11:30:40.295Z,101401.69
2022-09-12T11:33:30.085Z,101437.72
2022-09-12T11:36:02.852Z,101445.50
2022-09-12T11:38:53.532Z,101439.16
2022-09-12T11:41:29.479Z,101441.47
2022-09-12T11:44:05.861Z,101410.66
2022-09-12T11:46:38.848Z,101443.84
2022-09-12T11:49:24.199Z,101445.19
2022-09-12T11:51:57.908Z,101441.16
2022-09-12T11:54:34.169Z,101425.47
2022-09-12T11:57:17.963Z,101418.91
2022-09-12T11:59:53.572Z,101429.41
2022-09-12T12:02:28.223Z,101451.50
2022-09-12T12:05:23.349Z,101445.97
2022-09-12T12:07:55.950Z,101407.63
2022-09-12T12:10:34.052Z,101423.44
2022-09-12T12:13:06.752Z,101434.25
2022-09-12T12:15:39.851Z,101405.38
2022-09-12T12:18:18.169Z,101417.09
2022-09-12T12:20:48.389Z,101413.44
2022-09-12T12:23:30.259Z,101428.28
2022-09-12T12:26:01.078Z,101410.31
2022-09-12T12:29:01.008Z,101418.00
2022-09-12T12:31:29.405Z,101351.06
2022-09-12T12:34:28.086Z,101364.09
2022-09-12T12:36:59.201Z,101415.72
2022-09-12T12:40:05.846Z,101415.81
2022-09-12T12:43:31.913Z,101407.22
2022-09-12T12:46:13.239Z,101379.22
2022-09-12T12:49:18.970Z,101398.91
2022-09-12T12:52:03.009Z,101369.63
2022-09-12T12:54:58.412Z,101392.38
2022-09-12T12:57:41.798Z,101368.34
2022-09-12T13:00:32.062Z,101354.13
2022-09-12T13:03:08.011Z,101345.25
2022-09-12T13:05:43.568Z,101369.28
2022-09-12T13:08:31.820Z,101386.25
2022-09-12T13:11:04.277Z,101383.28
2022-09-12T13:13:39.466Z,101377.03
2022-09-12T13:16:10.490Z,101321.03
2022-09-12T13:18:46.315Z,101352.31
2022-09-12T13:21:17.011Z,101331.59
2022-09-12T13:24:02.112Z,101325.22
2022-09-12T13:26:34.398Z,101344.13
2022-09-12T13:29:15.729Z,101341.75
2022-09-12T13:31:47.366Z,101334.81
2022-09-12T13:34:20.832Z,101336.88
2022-09-12T13:37:11.366Z,101321.25
2022-09-12T13:39:49.656Z,101325.66
2022-09-12T13:42:40.970Z,101350.84
2022-09-12T13:45:18.575Z,101348.88
2022-09-12T13:47:49.853Z,101333.16
2022-09-12T13:50:23.162Z,101341.94
2022-09-12T13:52:57.377Z,101325.66
2022-09-12T13:55:32.218Z,101314.34
2022-09-12T13:58:04.076Z,101289.41
2022-09-12T14:00:35.024Z,101309.63
2022-09-12T14:03:43.012Z,101279.00
2022-09-12T14:06:12.636Z,101256.47
2022-09-12T14:08:43.018Z,101299.28
2022-09-12T14:11:18.896Z,101258.78
2022-09-12T14:13:48.523Z,101287.13
2022-09-12T14:16:17.041Z,101298.28
2022-09-12T14:18:48.113Z,101293.81
2022-09-12T14:21:34.225Z,101297.06
2022-09-12T14:24:05.683Z,101282.56
2022-09-12T14:26:40.569Z,101291.50
2022-09-12T14:29:10.149Z,101281.38
2022-09-12T14:31:40.717Z,101234.81
2022-09-12T14:34:15.885Z,101286.81
2022-09-12T14:36:48.110Z,101238.13
2022-09-12T14:39:26.088Z,101285.16
2022-09-12T14:42:05.718Z,101259.84
2022-09-12T14:44:36.294Z,101274.63
2022-09-12T14:47:16.253Z,101266.19
2022-09-12T14:49:44.693Z,101269.19
2022-09-12T14:52:32.363Z,101260.59
2022-09-12T14:55:03.609Z,101251.72
2022-09-12T14:57:38.952Z,101266.91
2022-09-12T15:00:24.035Z,101258.69
2022-09-12T15:02:54.203Z,101270.16
2022-09-12T15:05:28.088Z,101241.28
2022-09-12T15:08:00.969Z,101254.31
2022-09-12T15:10:33.125Z,101254.41
2022-09-12T15:13:20.649Z,101267.69
2022-09-12T15:15:52.676Z,101229.22
2022-09-12T15:18:22.581Z,101271.16
2022-09-12T15:20:55.129Z,101247.66
2022-09-12T15:23:34.007Z,101265.41
2022-09-12T15:26:02.844Z,101258.78
2022-09-12T15:28:33.885Z,101237.78
2022-09-12T15:31:13.747Z,101246.34
2022-09-12T15:33:42.113Z,101237.44
2022-09-12T15:36:17.639Z,101235.38
2022-09-12T15:38:47.949Z,101256.16
2022-09-12T15:41:19.865Z,101255.72
2022-09-12T15:43:50.355Z,101233.25
2022-09-12T15:46:20.317Z,101180.94
2022-09-12T15:48:48.914Z,101226.72
2022-09-12T15:51:20.270Z,101223.69
2022-09-12T15:53:50.703Z,101251.13
2022-09-12T15:56:21.647Z,101225.56
2022-09-12T15:59:00.016Z,101236.59
2022-09-12T16:01:29.837Z,101223.81
2022-09-12T16:03:58.555Z,101228.22
2022-09-12T16:06:27.938Z,101231.19
2022-09-12T16:08:56.649Z,101231.66
2022-09-12T16:11:27.496Z,101230.72
2022-09-12T16:13:58.360Z,101205.81
2022-09-12T16:16:26.792Z,101213.31
2022-09-12T16:18:55.273Z,101154.25
2022-09-12T16:21:24.060Z,101209.53
2022-09-12T16:23:52.632Z,101189.38
2022-09-12T16:26:21.238Z,101184.16
2022-09-12T16:28:55.233Z,101200.47
2022-09-12T16:31:26.561Z,101185.25
2022-09-12T16:33:55.830Z,101210.44
2022-09-12T16:36:24.604Z,101180.53
2022-09-12T16:38:54.987Z,101164.91
2022-09-12T16:41:28.425Z,101174.28
2022-09-12T16:43:57.125Z,101138.72
2022-09-12T16:46:29.351Z,101163.72
2022-09-12T16:48:59.821Z,101146.91
2022-09-12T16:51:33.143Z,101160.00
2022-09-12T16:54:01.491Z,101132.84
2022-09-12T16:56:29.920Z,101087.72
2022-09-12T16:58:58.343Z,101144.63
2022-09-12T17:01:28.572Z,101128.84
2022-09-12T17:03:59.407Z,101136.94
2022-09-12T17:06:28.912Z,101127.16
2022-09-12T17:09:02.821Z,101152.81
2022-09-12T17:11:34.085Z,101154.16
2022-09-12T17:14:05.768Z,101137.25
2022-09-12T17:16:38.584Z,101139.78
2022-09-12T17:19:08.059Z,101140.69
2022-09-12T17:21:36.744Z,101171.34
2022-09-12T17:24:05.651Z,101157.63
2022-09-12T17:26:34.369Z,101147.06
2022-09-12T17:29:03.248Z,101149.28
2022-09-12T17:31:32.533Z,101110.19
2022-09-12T17:34:03.573Z,101115.38
2022-09-12T17:36:34.047Z,101094.34
2022-09-12T17:39:04.815Z,101123.44
2022-09-12T17:41:34.192Z,101128.06
2022-09-12T17:44:04.015Z,101145.69
2022-09-12T17:46:35.683Z,101146.94
2022-09-12T17:49:08.787Z,101142.19
2022-09-12T17:51:37.663Z,101134.19
2022-09-12T17:54:08.709Z,101153.75
2022-09-12T17:56:39.852Z,101157.72
2022-09-12T17:59:11.869Z,101160.53
2022-09-12T18:01:57.043Z,101136.44
2022-09-12T18:04:27.866Z,101133.50
2022-09-12T18:06:57.734Z,101174.09
2022-09-12T18:09:26.253Z,101168.22
2022-09-12T18:11:55.351Z,101158.47
2022-09-12T18:14:24.818Z,101165.84
2022-09-12T18:16:53.661Z,101179.50
2022-09-12T18:19:23.356Z,101150.97
2022-09-12T18:21:53.508Z,101182.72
2022-09-12T18:24:22.152Z,101180.38
2022-09-12T18:26:50.697Z,101175.34
2022-09-12T18:29:20.317Z,101185.44
2022-09-12T18:31:49.010Z,101169.97
2022-09-12T18:34:18.280Z,101160.91
2022-09-12T18:36:51.549Z,101161.09
2022-09-12T18:39:26.714Z,101122.66
2022-09-12T18:41:56.604Z,101142.94
2022-09-12T18:44:25.013Z,101118.47
2022-09-12T18:46:53.907Z,101163.63
2022-09-12T18:49:22.945Z,101162.06
2022-09-12T18:51:51.267Z,101161.41
2022-09-12T18:54:21.179Z,101154.28
2022-09-12T18:56:49.758Z,101134.19
2022-09-12T18:59:18.251Z,101111.66
2022-09-12T19:01:47.646Z,101145.91
2022-09-12T19:04:16.597Z,101139.81
2022-09-12T19:06:48.201Z,101115.56
2022-09-12T19:09:18.980Z,101110.38
2022-09-12T19:11:52.851Z,101134.41
2022-09-12T19:14:24.889Z,101129.34
2022-09-12T19:16:54.313Z,101127.47
2022-09-12T19:19:23.401Z,101143.41
2022-09-12T19:21:51.945Z,101150.72
2022-09-12T19:24:21.838Z,101158.88
2022-09-12T19:26:52.081Z,101155.53
2022-09-12T19:29:20.594Z,101140.78
2022-09-12T19:31:49.025Z,101159.25
2022-09-12T19:34:17.433Z,101138.44
2022-09-12T19:36:47.289Z,101124.41
2022-09-12T19:39:17.338Z,101122.84
2022-09-12T19:41:48.316Z,101122.13
2022-09-12T19:44:19.234Z,101117.91
2022-09-12T19:46:47.767Z,101124.38
2022-09-12T19:49:16.557Z,101105.94
2022-09-12T19:51:44.926Z,101156.81
2022-09-12T19:54:13.858Z,101142.75
2022-09-12T19:56:42.478Z,101153.22
2022-09-12T19:59:11.722Z,101056.03
2022-09-12T20:01:41.651Z,101150.56
2022-09-12T20:04:10.117Z,101128.88
2022-09-12T20:06:38.708Z,101151.81
2022-09-12T20:09:07.221Z,101150.75
2022-09-12T20:11:35.651Z,101144.78
2022-09-12T20:14:04.327Z,101086.88
2022-09-12T20:16:33.493Z,101087.69
2022-09-12T20:19:07.102Z,101103.69
2022-09-12T20:21:37.221Z,101129.88
2022-09-12T20:24:10.881Z,101104.53
2022-09-12T20:26:39.713Z,101125.63
2022-09-12T20:29:09.664Z,101137.09
2022-09-12T20:31:40.137Z,101133.78
2022-09-12T20:34:17.789Z,101119.81
2022-09-12T20:36:46.275Z,101124.25
2022-09-12T20:39:17.067Z,101128.97
2022-09-12T20:41:46.744Z,101122.84
2022-09-12T20:44:15.851Z,101123.06
2022-09-12T20:46:44.751Z,101138.66
2022-09-12T20:49:14.707Z,101138.69
2022-09-12T20:51:43.173Z,101140.47
2022-09-12T20:54:12.447Z,101111.66
2022-09-12T20:56:40.813Z,101151.13
2022-09-12T20:59:12.540Z,101119.63
2022-09-12T21:01:41.012Z,101099.56
2022-09-12T21:04:13.043Z,101162.75
2022-09-12T21:06:44.921Z,101140.81
2022-09-12T21:09:15.030Z,101124.06
2022-09-12T21:11:43.429Z,101152.31
2022-09-12T21:14:11.842Z,101153.19
2022-09-12T21:16:40.262Z,101153.22
2022-09-12T21:19:09.117Z,101140.97
2022-09-12T21:21:37.899Z,101109.28
2022-09-12T21:24:08.681Z,101119.66
2022-09-12T21:26:39.059Z,101133.66
2022-09-12T21:29:07.462Z,101115.13
2022-09-12T21:31:35.883Z,101155.28
2022-09-12T21:34:04.667Z,101145.44
2022-09-12T21:36:33.013Z,101109.50
2022-09-12T21:39:01.558Z,101113.94
2022-09-12T21:41:31.320Z,101138.41
2022-09-12T21:43:59.640Z,101119.00
2022-09-12T21:46:28.051Z,101151.22
2022-09-12T21:48:56.471Z,101149.41
2022-09-12T21:51:24.788Z,101153.78
2022-09-12T21:53:53.469Z,101148.47
2022-09-12T21:56:22.091Z,101160.94
2022-09-12T21:58:51.864Z,101177.00
2022-09-12T22:01:20.447Z,101177.78
2022-09-12T22:03:50.015Z,101171.28
2022-09-12T22:06:22.275Z,101153.63
2022-09-12T22:08:50.935Z,101139.47
2022-09-12T22:11:20.593Z,101165.72
2022-09-12T22:13:49.091Z,101126.28
2022-09-12T22:16:19.047Z,101152.41
2022-09-12T22:18:47.871Z,101142.63
2022-09-12T22:21:22.038Z,101107.00
2022-09-12T22:24:07.605Z,101141.00
2022-09-12T22:26:43.283Z,101101.66
2022-09-12T22:29:13.299Z,101100.00
2022-09-12T22:31:43.229Z,101131.63
2022-09-12T22:34:11.733Z,101132.56
2022-09-12T22:36:40.180Z,101121.13
2022-09-12T22:39:09.176Z,101091.28
2022-09-12T22:41:37.560Z,101038.91
2022-09-12T22:44:06.503Z,101115.94
2022-09-12T22:46:35.183Z,101108.16
2022-09-12T22:49:05.826Z,101102.13
2022-09-12T22:51:34.629Z,101099.41
2022-09-12T22:54:03.573Z,101112.56
2022-09-12T22:56:31.985Z,101109.09
2022-09-12T22:59:01.221Z,101109.16
2022-09-12T23:01:29.852Z,101046.06
2022-09-12T23:03:58.208Z,101098.53
2022-09-12T23:06:28.115Z,101102.13
2022-09-12T23:08:57.345Z,101097.69
2022-09-12T23:11:25.974Z,101095.97
2022-09-12T23:13:54.703Z,101094.19
2022-09-12T23:16:25.562Z,101067.81
2022-09-12T23:18:54.202Z,101092.31
2022-09-12T23:21:23.478Z,101066.78
2022-09-12T23:23:53.484Z,101072.97
2022-09-12T23:26:24.045Z,101077.31
2022-09-12T23:28:54.809Z,101058.31
2022-09-12T23:31:25.155Z,101075.44
2022-09-12T23:33:54.905Z,101059.75
2022-09-12T23:36:24.490Z,101076.41
2022-09-12T23:38:55.794Z,101039.56
2022-09-12T23:41:25.202Z,101084.94
2022-09-12T23:43:53.729Z,101084.13
2022-09-12T23:46:22.366Z,101051.84
2022-09-12T23:48:53.151Z,101081.59
2022-09-12T23:51:22.723Z,101054.41
2022-09-12T23:53:51.102Z,101078.94
2022-09-12T23:56:22.108Z,101020.28
2022-09-12T23:58:50.483Z,101035.97
